sensor_id;sensor_type;location;lat;lon;timestamp;temperature;humidity
52305;DHT22;38248;52.722;6.734;2022-09-28T00:01:56;8.20;99.90
52305;DHT22;38248;52.722;6.734;2022-09-28T00:04:25;8.20;99.90
52305;DHT22;38248;52.722;6.734;2022-09-28T00:06:50;8.20;99.90
52305;DHT22;38248;52.722;6.734;2022-09-28T00:09:16;8.20;99.90
52305;DHT22;38248;52.722;6.734;2022-09-28T00:11:42;8.20;99.90
52305;DHT22;38248;52.722;6.734;2022-09-28T00:14:09;8.20;99.90
52305;DHT22;38248;52.722;6.734;2022-09-28T00:16:41;8.20;99.90
52305;DHT22;38248;52.722;6.734;2022-09-28T00:19:08;8.20;99.90
52305;DHT22;38248;52.722;6.734;2022-09-28T00:21:36;8.20;99.90
52305;DHT22;38248;52.722;6.734;2022-09-28T00:24:04;8.20;99.90
52305;DHT22;38248;52.722;6.734;2022-09-28T00:29:28;8.10;99.90
52305;DHT22;38248;52.722;6.734;2022-09-28T00:31:57;8.10;99.90
52305;DHT22;38248;52.722;6.734;2022-09-28T00:34:27;8.10;99.90
52305;DHT22;38248;52.722;6.734;2022-09-28T00:36:53;8.00;99.90
52305;DHT22;38248;52.722;6.734;2022-09-28T00:39:18;8.00;99.90
52305;DHT22;38248;52.722;6.734;2022-09-28T00:41:45;8.00;99.90
52305;DHT22;38248;52.722;6.734;2022-09-28T00:52:38;8.00;99.90
52305;DHT22;38248;52.722;6.734;2022-09-28T00:55:11;8.00;99.90
52305;DHT22;38248;52.722;6.734;2022-09-28T00:57:39;8.00;99.90
52305;DHT22;38248;52.722;6.734;2022-09-28T01:00:07;8.00;99.90
52305;DHT22;38248;52.722;6.734;2022-09-28T01:02:34;8.00;99.90
52305;DHT22;38248;52.722;6.734;2022-09-28T01:05:00;8.00;99.90
52305;DHT22;38248;52.722;6.734;2022-09-28T01:07:30;8.00;99.90
52305;DHT22;38248;52.722;6.734;2022-09-28T01:09:56;7.90;99.90
52305;DHT22;38248;52.722;6.734;2022-09-28T01:12:22;7.90;99.90
52305;DHT22;38248;52.722;6.734;2022-09-28T01:14:48;8.00;99.90
52305;DHT22;38248;52.722;6.734;2022-09-28T01:17:35;7.90;99.90
52305;DHT22;38248;52.722;6.734;2022-09-28T01:26:27;7.90;99.90
52305;DHT22;38248;52.722;6.734;2022-09-28T01:29:09;7.80;99.90
52305;DHT22;38248;52.722;6.734;2022-09-28T01:31:40;7.80;99.90
52305;DHT22;38248;52.722;6.734;2022-09-28T01:34:19;7.80;99.90
52305;DHT22;38248;52.722;6.734;2022-09-28T01:36:50;7.80;99.90
52305;DHT22;38248;52.722;6.734;2022-09-28T01:39:23;7.70;99.90
52305;DHT22;38248;52.722;6.734;2022-09-28T01:41:51;7.70;99.90
52305;DHT22;38248;52.722;6.734;2022-09-28T01:44:20;7.60;99.90
52305;DHT22;38248;52.722;6.734;2022-09-28T01:46:49;7.60;99.90
52305;DHT22;38248;52.722;6.734;2022-09-28T01:49:21;7.50;99.90
52305;DHT22;38248;52.722;6.734;2022-09-28T01:51:57;7.50;99.90
52305;DHT22;38248;52.722;6.734;2022-09-28T01:54:35;7.40;99.90
52305;DHT22;38248;52.722;6.734;2022-09-28T01:57:08;7.40;99.90
52305;DHT22;38248;52.722;6.734;2022-09-28T01:59:36;7.40;99.90
52305;DHT22;38248;52.722;6.734;2022-09-28T02:02:11;7.40;99.90
52305;DHT22;38248;52.722;6.734;2022-09-28T02:04:50;7.40;99.90
52305;DHT22;38248;52.722;6.734;2022-09-28T02:07:26;7.30;99.90
52305;DHT22;38248;52.722;6.734;2022-09-28T02:09:59;7.30;99.90
52305;DHT22;38248;52.722;6.734;2022-09-28T02:12:34;7.20;99.90
52305;DHT22;38248;52.722;6.734;2022-09-28T02:15:14;7.20;99.90
52305;DHT22;38248;52.722;6.734;2022-09-28T02:17:41;7.10;99.90
52305;DHT22;38248;52.722;6.734;2022-09-28T02:20:08;7.10;99.90
52305;DHT22;38248;52.722;6.734;2022-09-28T02:22:47;7.00;99.90
52305;DHT22;38248;52.722;6.734;2022-09-28T02:25:29;7.00;99.90
52305;DHT22;38248;52.722;6.734;2022-09-28T02:30:26;6.90;99.90
52305;DHT22;38248;52.722;6.734;2022-09-28T02:32:56;6.80;99.90
52305;DHT22;38248;52.722;6.734;2022-09-28T02:35:27;6.80;99.90
52305;DHT22;38248;52.722;6.734;2022-09-28T02:37:53;6.80;99.90
52305;DHT22;38248;52.722;6.734;2022-09-28T02:40:22;6.80;99.90
52305;DHT22;38248;52.722;6.734;2022-09-28T02:48:35;6.80;99.90
52305;DHT22;38248;52.722;6.734;2022-09-28T02:53:59;6.90;99.90
52305;DHT22;38248;52.722;6.734;2022-09-28T02:56:51;6.90;99.90
52305;DHT22;38248;52.722;6.734;2022-09-28T03:05:11;7.00;99.90
52305;DHT22;38248;52.722;6.734;2022-09-28T03:08:08;7.10;99.90
52305;DHT22;38248;52.722;6.734;2022-09-28T03:13:23;7.10;99.90
52305;DHT22;38248;52.722;6.734;2022-09-28T03:15:49;7.10;99.90
52305;DHT22;38248;52.722;6.734;2022-09-28T03:18:15;7.10;99.90
52305;DHT22;38248;52.722;6.734;2022-09-28T03:20:41;7.10;99.90
52305;DHT22;38248;52.722;6.734;2022-09-28T03:23:07;7.10;99.90
52305;DHT22;38248;52.722;6.734;2022-09-28T03:25:35;7.20;99.90
52305;DHT22;38248;52.722;6.734;2022-09-28T03:28:01;7.10;99.90
52305;DHT22;38248;52.722;6.734;2022-09-28T03:30:27;7.10;99.90
52305;DHT22;38248;52.722;6.734;2022-09-28T03:32:57;7.10;99.90
52305;DHT22;38248;52.722;6.734;2022-09-28T03:35:23;7.10;99.90
52305;DHT22;38248;52.722;6.734;2022-09-28T03:37:48;7.10;99.90
52305;DHT22;38248;52.722;6.734;2022-09-28T03:40:14;7.00;99.90
52305;DHT22;38248;52.722;6.734;2022-09-28T03:42:39;7.00;99.90
52305;DHT22;38248;52.722;6.734;2022-09-28T03:45:05;7.00;99.90
52305;DHT22;38248;52.722;6.734;2022-09-28T03:47:31;7.00;99.90
52305;DHT22;38248;52.722;6.734;2022-09-28T03:49:57;7.00;99.90
52305;DHT22;38248;52.722;6.734;2022-09-28T03:52:22;6.90;99.90
52305;DHT22;38248;52.722;6.734;2022-09-28T03:54:48;6.90;99.90
52305;DHT22;38248;52.722;6.734;2022-09-28T03:57:13;6.90;99.90
52305;DHT22;38248;52.722;6.734;2022-09-28T03:59:39;6.80;99.90
52305;DHT22;38248;52.722;6.734;2022-09-28T04:02:05;6.80;99.90
52305;DHT22;38248;52.722;6.734;2022-09-28T04:04:30;6.90;99.90
52305;DHT22;38248;52.722;6.734;2022-09-28T04:06:56;6.80;99.90
52305;DHT22;38248;52.722;6.734;2022-09-28T04:09:22;6.90;99.90
52305;DHT22;38248;52.722;6.734;2022-09-28T04:11:47;6.80;99.90
52305;DHT22;38248;52.722;6.734;2022-09-28T04:14:15;6.90;99.90
52305;DHT22;38248;52.722;6.734;2022-09-28T04:16:40;6.90;99.90
52305;DHT22;38248;52.722;6.734;2022-09-28T04:19:06;6.90;99.90
52305;DHT22;38248;52.722;6.734;2022-09-28T04:21:31;6.90;99.90
52305;DHT22;38248;52.722;6.734;2022-09-28T04:23:58;7.00;99.90
52305;DHT22;38248;52.722;6.734;2022-09-28T04:26:25;7.00;99.90
52305;DHT22;38248;52.722;6.734;2022-09-28T04:28:51;7.10;99.90
52305;DHT22;38248;52.722;6.734;2022-09-28T04:31:44;7.10;99.90
52305;DHT22;38248;52.722;6.734;2022-09-28T04:34:12;7.10;99.90
52305;DHT22;38248;52.722;6.734;2022-09-28T04:36:39;7.20;99.90
52305;DHT22;38248;52.722;6.734;2022-09-28T04:39:05;7.20;99.90
52305;DHT22;38248;52.722;6.734;2022-09-28T04:41:30;7.20;99.90
52305;DHT22;38248;52.722;6.734;2022-09-28T04:43:56;7.30;99.90
52305;DHT22;38248;52.722;6.734;2022-09-28T04:46:21;7.30;99.90
52305;DHT22;38248;52.722;6.734;2022-09-28T04:48:47;7.40;99.90
52305;DHT22;38248;52.722;6.734;2022-09-28T04:51:13;7.40;99.90
52305;DHT22;38248;52.722;6.734;2022-09-28T04:53:41;7.40;99.90
52305;DHT22;38248;52.722;6.734;2022-09-28T04:56:10;7.40;99.90
52305;DHT22;38248;52.722;6.734;2022-09-28T04:58:36;7.50;99.90
52305;DHT22;38248;52.722;6.734;2022-09-28T05:01:05;7.50;99.90
52305;DHT22;38248;52.722;6.734;2022-09-28T05:03:31;7.50;99.90
52305;DHT22;38248;52.722;6.734;2022-09-28T05:05:57;7.50;99.90
52305;DHT22;38248;52.722;6.734;2022-09-28T05:08:23;7.50;99.90
52305;DHT22;38248;52.722;6.734;2022-09-28T05:10:56;7.50;99.90
52305;DHT22;38248;52.722;6.734;2022-09-28T05:13:24;7.50;99.90
52305;DHT22;38248;52.722;6.734;2022-09-28T05:15:52;7.50;99.90
52305;DHT22;38248;52.722;6.734;2022-09-28T05:18:18;7.50;99.90
52305;DHT22;38248;52.722;6.734;2022-09-28T05:20:43;7.60;99.90
52305;DHT22;38248;52.722;6.734;2022-09-28T05:23:10;7.50;99.90
52305;DHT22;38248;52.722;6.734;2022-09-28T05:25:37;7.60;99.90
52305;DHT22;38248;52.722;6.734;2022-09-28T05:28:04;7.60;99.90
52305;DHT22;38248;52.722;6.734;2022-09-28T05:30:29;7.50;99.90
52305;DHT22;38248;52.722;6.734;2022-09-28T05:32:56;7.60;99.90
52305;DHT22;38248;52.722;6.734;2022-09-28T05:35:22;7.50;99.90
52305;DHT22;38248;52.722;6.734;2022-09-28T05:37:50;7.50;99.90
52305;DHT22;38248;52.722;6.734;2022-09-28T05:40:18;7.40;99.90
52305;DHT22;38248;52.722;6.734;2022-09-28T05:42:44;7.40;99.90
52305;DHT22;38248;52.722;6.734;2022-09-28T05:45:09;7.40;99.90
52305;DHT22;38248;52.722;6.734;2022-09-28T05:47:42;7.40;99.90
52305;DHT22;38248;52.722;6.734;2022-09-28T05:50:09;7.40;99.90
52305;DHT22;38248;52.722;6.734;2022-09-28T05:52:37;7.40;99.90
52305;DHT22;38248;52.722;6.734;2022-09-28T05:55:05;7.50;99.90
52305;DHT22;38248;52.722;6.734;2022-09-28T05:57:31;7.50;99.90
52305;DHT22;38248;52.722;6.734;2022-09-28T05:59:56;7.50;99.90
52305;DHT22;38248;52.722;6.734;2022-09-28T06:02:24;7.50;99.90
52305;DHT22;38248;52.722;6.734;2022-09-28T06:04:50;7.50;99.90
52305;DHT22;38248;52.722;6.734;2022-09-28T06:07:19;7.60;99.90
52305;DHT22;38248;52.722;6.734;2022-09-28T06:09:46;7.60;99.90
52305;DHT22;38248;52.722;6.734;2022-09-28T06:12:11;7.50;99.90
52305;DHT22;38248;52.722;6.734;2022-09-28T06:14:37;7.50;99.90
52305;DHT22;38248;52.722;6.734;2022-09-28T06:17:03;7.40;99.90
52305;DHT22;38248;52.722;6.734;2022-09-28T06:19:29;7.40;99.90
52305;DHT22;38248;52.722;6.734;2022-09-28T06:21:55;7.40;99.90
52305;DHT22;38248;52.722;6.734;2022-09-28T06:24:20;7.40;99.90
52305;DHT22;38248;52.722;6.734;2022-09-28T06:26:46;7.50;99.90
52305;DHT22;38248;52.722;6.734;2022-09-28T06:29:12;7.50;99.90
52305;DHT22;38248;52.722;6.734;2022-09-28T06:31:42;7.60;99.90
52305;DHT22;38248;52.722;6.734;2022-09-28T06:34:07;7.60;99.90
52305;DHT22;38248;52.722;6.734;2022-09-28T06:36:33;7.60;99.90
52305;DHT22;38248;52.722;6.734;2022-09-28T06:39:02;7.60;99.90
52305;DHT22;38248;52.722;6.734;2022-09-28T06:41:30;7.70;99.90
52305;DHT22;38248;52.722;6.734;2022-09-28T06:43:56;7.70;99.90
52305;DHT22;38248;52.722;6.734;2022-09-28T06:46:22;7.70;99.90
52305;DHT22;38248;52.722;6.734;2022-09-28T06:48:50;7.70;99.90
52305;DHT22;38248;52.722;6.734;2022-09-28T06:51:16;7.70;99.90
52305;DHT22;38248;52.722;6.734;2022-09-28T06:53:42;7.70;99.90
52305;DHT22;38248;52.722;6.734;2022-09-28T06:56:08;7.70;99.90
52305;DHT22;38248;52.722;6.734;2022-09-28T06:58:34;7.70;99.90
52305;DHT22;38248;52.722;6.734;2022-09-28T07:01:00;7.70;99.90
52305;DHT22;38248;52.722;6.734;2022-09-28T07:03:26;7.70;99.90
52305;DHT22;38248;52.722;6.734;2022-09-28T07:05:53;7.70;99.90
52305;DHT22;38248;52.722;6.734;2022-09-28T07:08:21;7.80;99.90
52305;DHT22;38248;52.722;6.734;2022-09-28T07:10:49;7.90;99.90
52305;DHT22;38248;52.722;6.734;2022-09-28T07:13:25;7.90;99.90
52305;DHT22;38248;52.722;6.734;2022-09-28T07:15:56;7.90;99.90
52305;DHT22;38248;52.722;6.734;2022-09-28T07:18:22;7.90;99.90
52305;DHT22;38248;52.722;6.734;2022-09-28T07:20:48;7.90;99.90
52305;DHT22;38248;52.722;6.734;2022-09-28T07:23:14;7.90;99.90
52305;DHT22;38248;52.722;6.734;2022-09-28T07:25:41;7.90;99.90
52305;DHT22;38248;52.722;6.734;2022-09-28T07:28:10;7.90;99.90
52305;DHT22;38248;52.722;6.734;2022-09-28T07:30:36;7.90;99.90
52305;DHT22;38248;52.722;6.734;2022-09-28T07:33:04;8.00;99.90
52305;DHT22;38248;52.722;6.734;2022-09-28T07:35:30;7.90;99.90
52305;DHT22;38248;52.722;6.734;2022-09-28T07:38:00;7.90;99.90
52305;DHT22;38248;52.722;6.734;2022-09-28T07:40:29;8.00;99.90
52305;DHT22;38248;52.722;6.734;2022-09-28T07:43:14;7.90;99.90
52305;DHT22;38248;52.722;6.734;2022-09-28T07:45:45;7.90;99.90
52305;DHT22;38248;52.722;6.734;2022-09-28T07:48:12;8.00;99.90
52305;DHT22;38248;52.722;6.734;2022-09-28T07:51:13;8.10;99.90
52305;DHT22;38248;52.722;6.734;2022-09-28T07:53:33;8.20;99.90
52305;DHT22;38248;52.722;6.734;2022-09-28T07:56:01;8.20;99.90
52305;DHT22;38248;52.722;6.734;2022-09-28T07:58:35;8.30;99.90
52305;DHT22;38248;52.722;6.734;2022-09-28T08:01:09;8.30;99.90
52305;DHT22;38248;52.722;6.734;2022-09-28T08:03:36;8.30;99.90
52305;DHT22;38248;52.722;6.734;2022-09-28T08:06:06;8.30;99.90
52305;DHT22;38248;52.722;6.734;2022-09-28T08:08:34;8.30;99.90
52305;DHT22;38248;52.722;6.734;2022-09-28T08:11:00;8.40;99.90
52305;DHT22;38248;52.722;6.734;2022-09-28T08:13:26;8.40;99.90
52305;DHT22;38248;52.722;6.734;2022-09-28T08:15:52;8.50;99.90
52305;DHT22;38248;52.722;6.734;2022-09-28T08:18:19;8.50;99.90
52305;DHT22;38248;52.722;6.734;2022-09-28T08:20:44;8.50;99.90
52305;DHT22;38248;52.722;6.734;2022-09-28T08:23:29;8.50;99.90
52305;DHT22;38248;52.722;6.734;2022-09-28T08:25:55;8.60;99.90
52305;DHT22;38248;52.722;6.734;2022-09-28T08:28:22;8.80;99.90
52305;DHT22;38248;52.722;6.734;2022-09-28T08:30:49;8.80;99.90
52305;DHT22;38248;52.722;6.734;2022-09-28T08:33:16;8.80;99.90
52305;DHT22;38248;52.722;6.734;2022-09-28T08:35:43;8.90;99.90
52305;DHT22;38248;52.722;6.734;2022-09-28T08:38:10;9.00;99.90
52305;DHT22;38248;52.722;6.734;2022-09-28T08:41:07;9.00;99.90
52305;DHT22;38248;52.722;6.734;2022-09-28T08:46:19;9.20;99.90
52305;DHT22;38248;52.722;6.734;2022-09-28T08:49:00;9.30;99.90
52305;DHT22;38248;52.722;6.734;2022-09-28T08:51:38;9.40;99.90
52305;DHT22;38248;52.722;6.734;2022-09-28T08:54:26;9.40;99.90
52305;DHT22;38248;52.722;6.734;2022-09-28T08:56:56;9.50;99.90
52305;DHT22;38248;52.722;6.734;2022-09-28T08:59:27;9.50;99.90
52305;DHT22;38248;52.722;6.734;2022-09-28T09:02:02;9.60;99.90
52305;DHT22;38248;52.722;6.734;2022-09-28T09:04:30;9.70;99.90
52305;DHT22;38248;52.722;6.734;2022-09-28T09:07:45;9.70;99.90
52305;DHT22;38248;52.722;6.734;2022-09-28T09:13:18;9.90;99.90
52305;DHT22;38248;52.722;6.734;2022-09-28T09:16:21;9.90;99.90
52305;DHT22;38248;52.722;6.734;2022-09-28T09:19:13;9.90;99.90
52305;DHT22;38248;52.722;6.734;2022-09-28T09:21:44;10.00;99.90
52305;DHT22;38248;52.722;6.734;2022-09-28T09:24:27;10.10;99.90
52305;DHT22;38248;52.722;6.734;2022-09-28T09:27:05;10.10;99.90
52305;DHT22;38248;52.722;6.734;2022-09-28T09:29:53;10.30;99.90
52305;DHT22;38248;52.722;6.734;2022-09-28T09:35:20;10.70;99.90
52305;DHT22;38248;52.722;6.734;2022-09-28T09:40:38;11.00;99.90
52305;DHT22;38248;52.722;6.734;2022-09-28T09:43:26;11.00;99.90
52305;DHT22;38248;52.722;6.734;2022-09-28T09:48:32;11.30;99.90
52305;DHT22;38248;52.722;6.734;2022-09-28T09:51:03;11.50;99.90
52305;DHT22;38248;52.722;6.734;2022-09-28T09:53:37;11.70;99.90
52305;DHT22;38248;52.722;6.734;2022-09-28T09:56:14;11.80;99.90
52305;DHT22;38248;52.722;6.734;2022-09-28T09:58:50;11.90;99.90
52305;DHT22;38248;52.722;6.734;2022-09-28T10:01:22;11.90;99.90
52305;DHT22;38248;52.722;6.734;2022-09-28T10:03:51;11.90;99.90
52305;DHT22;38248;52.722;6.734;2022-09-28T10:06:25;11.90;99.90
52305;DHT22;38248;52.722;6.734;2022-09-28T10:09:05;12.00;99.90
52305;DHT22;38248;52.722;6.734;2022-09-28T10:11:34;12.00;99.90
52305;DHT22;38248;52.722;6.734;2022-09-28T10:14:02;12.10;99.90
52305;DHT22;38248;52.722;6.734;2022-09-28T10:16:29;12.10;99.90
52305;DHT22;38248;52.722;6.734;2022-09-28T10:18:55;12.10;99.90
52305;DHT22;38248;52.722;6.734;2022-09-28T10:21:26;12.10;99.90
52305;DHT22;38248;52.722;6.734;2022-09-28T10:23:56;12.10;99.90
52305;DHT22;38248;52.722;6.734;2022-09-28T10:26:36;12.30;99.90
52305;DHT22;38248;52.722;6.734;2022-09-28T10:29:10;12.40;99.90
52305;DHT22;38248;52.722;6.734;2022-09-28T10:31:49;12.40;99.90
52305;DHT22;38248;52.722;6.734;2022-09-28T10:34:16;12.40;99.90
52305;DHT22;38248;52.722;6.734;2022-09-28T10:39:48;12.30;99.90
52305;DHT22;38248;52.722;6.734;2022-09-28T10:42:21;12.30;99.90
52305;DHT22;38248;52.722;6.734;2022-09-28T10:45:00;12.30;99.90
52305;DHT22;38248;52.722;6.734;2022-09-28T10:47:29;12.30;99.90
52305;DHT22;38248;52.722;6.734;2022-09-28T10:49:57;12.40;99.90
52305;DHT22;38248;52.722;6.734;2022-09-28T10:52:39;12.40;99.90
52305;DHT22;38248;52.722;6.734;2022-09-28T10:55:28;12.40;99.90
52305;DHT22;38248;52.722;6.734;2022-09-28T10:57:55;12.40;99.90
52305;DHT22;38248;52.722;6.734;2022-09-28T11:00:41;12.40;99.90
52305;DHT22;38248;52.722;6.734;2022-09-28T11:03:26;12.60;99.90
52305;DHT22;38248;52.722;6.734;2022-09-28T11:05:57;12.60;99.90
52305;DHT22;38248;52.722;6.734;2022-09-28T11:08:35;12.70;99.90
52305;DHT22;38248;52.722;6.734;2022-09-28T11:11:13;12.90;99.90
52305;DHT22;38248;52.722;6.734;2022-09-28T11:13:54;13.00;99.90
52305;DHT22;38248;52.722;6.734;2022-09-28T11:16:28;13.20;99.90
52305;DHT22;38248;52.722;6.734;2022-09-28T11:18:56;13.30;99.90
52305;DHT22;38248;52.722;6.734;2022-09-28T11:21:27;13.20;99.90
52305;DHT22;38248;52.722;6.734;2022-09-28T11:24:01;13.10;99.90
52305;DHT22;38248;52.722;6.734;2022-09-28T11:26:44;13.20;99.90
52305;DHT22;38248;52.722;6.734;2022-09-28T11:29:24;13.30;99.90
52305;DHT22;38248;52.722;6.734;2022-09-28T11:31:51;13.30;99.90
52305;DHT22;38248;52.722;6.734;2022-09-28T11:34:22;13.10;99.90
52305;DHT22;38248;52.722;6.734;2022-09-28T11:37:55;13.00;99.90
52305;DHT22;38248;52.722;6.734;2022-09-28T11:40:28;13.10;99.90
52305;DHT22;38248;52.722;6.734;2022-09-28T11:46:00;13.10;99.90
52305;DHT22;38248;52.722;6.734;2022-09-28T11:48:38;13.20;99.90
52305;DHT22;38248;52.722;6.734;2022-09-28T11:51:15;13.40;99.90
52305;DHT22;38248;52.722;6.734;2022-09-28T11:53:58;13.60;99.90
52305;DHT22;38248;52.722;6.734;2022-09-28T11:56:37;13.70;99.90
52305;DHT22;38248;52.722;6.734;2022-09-28T12:04:45;14.00;99.90
52305;DHT22;38248;52.722;6.734;2022-09-28T12:10:12;14.00;99.90
52305;DHT22;38248;52.722;6.734;2022-09-28T12:12:46;14.00;99.90
52305;DHT22;38248;52.722;6.734;2022-09-28T12:15:24;14.10;99.90
52305;DHT22;38248;52.722;6.734;2022-09-28T12:17:51;14.10;99.90
52305;DHT22;38248;52.722;6.734;2022-09-28T12:20:25;14.20;99.90
52305;DHT22;38248;52.722;6.734;2022-09-28T12:25:25;14.40;99.90
52305;DHT22;38248;52.722;6.734;2022-09-28T12:28:11;14.50;99.90
52305;DHT22;38248;52.722;6.734;2022-09-28T12:30:42;14.60;99.90
52305;DHT22;38248;52.722;6.734;2022-09-28T12:33:11;14.60;99.90
52305;DHT22;38248;52.722;6.734;2022-09-28T12:35:54;14.60;99.90
52305;DHT22;38248;52.722;6.734;2022-09-28T12:38:37;14.50;99.90
52305;DHT22;38248;52.722;6.734;2022-09-28T12:44:09;14.30;99.90
52305;DHT22;38248;52.722;6.734;2022-09-28T12:49:24;14.00;99.90
52305;DHT22;38248;52.722;6.734;2022-09-28T12:51:57;14.00;99.90
52305;DHT22;38248;52.722;6.734;2022-09-28T12:57:28;13.90;99.90
52305;DHT22;38248;52.722;6.734;2022-09-28T13:08:19;13.80;99.90
52305;DHT22;38248;52.722;6.734;2022-09-28T13:11:11;13.90;99.90
52305;DHT22;38248;52.722;6.734;2022-09-28T13:19:13;13.90;99.90
52305;DHT22;38248;52.722;6.734;2022-09-28T13:24:24;14.00;99.90
52305;DHT22;38248;52.722;6.734;2022-09-28T13:26:55;14.00;99.90
52305;DHT22;38248;52.722;6.734;2022-09-28T13:29:24;14.00;99.90
52305;DHT22;38248;52.722;6.734;2022-09-28T13:31:56;14.00;99.90
52305;DHT22;38248;52.722;6.734;2022-09-28T13:34:31;14.00;99.90
52305;DHT22;38248;52.722;6.734;2022-09-28T13:42:20;13.70;99.90
52305;DHT22;38248;52.722;6.734;2022-09-28T13:53:20;13.20;99.90
52305;DHT22;38248;52.722;6.734;2022-09-28T13:58:46;13.30;99.90
52305;DHT22;38248;52.722;6.734;2022-09-28T14:01:17;13.40;99.90
52305;DHT22;38248;52.722;6.734;2022-09-28T14:04:11;13.60;99.90
52305;DHT22;38248;52.722;6.734;2022-09-28T14:06:48;13.80;99.90
52305;DHT22;38248;52.722;6.734;2022-09-28T14:11:55;14.20;99.90
52305;DHT22;38248;52.722;6.734;2022-09-28T14:19:55;14.80;99.90
52305;DHT22;38248;52.722;6.734;2022-09-28T14:25:23;14.90;99.90
52305;DHT22;38248;52.722;6.734;2022-09-28T14:38:44;15.40;99.90
52305;DHT22;38248;52.722;6.734;2022-09-28T14:41:34;15.50;99.90
52305;DHT22;38248;52.722;6.734;2022-09-28T14:44:05;15.60;99.90
52305;DHT22;38248;52.722;6.734;2022-09-28T14:46:43;15.70;99.90
52305;DHT22;38248;52.722;6.734;2022-09-28T14:52:00;15.70;99.90
52305;DHT22;38248;52.722;6.734;2022-09-28T14:54:50;15.70;99.90
52305;DHT22;38248;52.722;6.734;2022-09-28T14:57:24;15.40;99.90
52305;DHT22;38248;52.722;6.734;2022-09-28T14:59:50;15.30;99.90
52305;DHT22;38248;52.722;6.734;2022-09-28T15:02:26;15.20;99.90
52305;DHT22;38248;52.722;6.734;2022-09-28T15:04:57;15.20;99.90
52305;DHT22;38248;52.722;6.734;2022-09-28T15:07:29;15.20;99.90
52305;DHT22;38248;52.722;6.734;2022-09-28T15:10:20;15.20;99.90
52305;DHT22;38248;52.722;6.734;2022-09-28T15:12:47;15.20;99.90
52305;DHT22;38248;52.722;6.734;2022-09-28T15:15:35;15.30;99.90
52305;DHT22;38248;52.722;6.734;2022-09-28T15:20:45;15.00;99.90
52305;DHT22;38248;52.722;6.734;2022-09-28T15:23:26;14.90;99.90
52305;DHT22;38248;52.722;6.734;2022-09-28T15:25:57;14.70;99.90
52305;DHT22;38248;52.722;6.734;2022-09-28T15:28:23;14.50;99.90
52305;DHT22;38248;52.722;6.734;2022-09-28T15:30:50;14.30;99.90
52305;DHT22;38248;52.722;6.734;2022-09-28T15:33:29;14.20;99.90
52305;DHT22;38248;52.722;6.734;2022-09-28T15:36:26;14.00;99.90
52305;DHT22;38248;52.722;6.734;2022-09-28T15:39:14;13.80;99.90
52305;DHT22;38248;52.722;6.734;2022-09-28T15:41:44;13.70;99.90
52305;DHT22;38248;52.722;6.734;2022-09-28T15:44:27;13.60;99.90
52305;DHT22;38248;52.722;6.734;2022-09-28T15:47:05;13.50;99.90
52305;DHT22;38248;52.722;6.734;2022-09-28T15:49:37;13.40;99.90
52305;DHT22;38248;52.722;6.734;2022-09-28T15:52:30;13.30;99.90
52305;DHT22;38248;52.722;6.734;2022-09-28T15:54:59;13.30;99.90
52305;DHT22;38248;52.722;6.734;2022-09-28T15:57:39;13.30;99.90
52305;DHT22;38248;52.722;6.734;2022-09-28T16:00:29;13.20;99.90
52305;DHT22;38248;52.722;6.734;2022-09-28T16:03:02;13.20;99.90
52305;DHT22;38248;52.722;6.734;2022-09-28T16:05:38;13.10;99.90
52305;DHT22;38248;52.722;6.734;2022-09-28T16:08:14;13.10;99.90
52305;DHT22;38248;52.722;6.734;2022-09-28T16:13:21;13.00;99.90
52305;DHT22;38248;52.722;6.734;2022-09-28T16:15:56;13.00;99.90
52305;DHT22;38248;52.722;6.734;2022-09-28T16:18:23;13.00;99.90
52305;DHT22;38248;52.722;6.734;2022-09-28T16:21:23;13.00;99.90
52305;DHT22;38248;52.722;6.734;2022-09-28T16:23:54;12.90;99.90
52305;DHT22;38248;52.722;6.734;2022-09-28T16:26:35;12.80;99.90
52305;DHT22;38248;52.722;6.734;2022-09-28T16:29:36;12.80;99.90
52305;DHT22;38248;52.722;6.734;2022-09-28T16:37:41;12.60;99.90
52305;DHT22;38248;52.722;6.734;2022-09-28T16:40:10;12.50;99.90
52305;DHT22;38248;52.722;6.734;2022-09-28T16:42:37;12.40;99.90
52305;DHT22;38248;52.722;6.734;2022-09-28T16:45:05;12.30;99.90
52305;DHT22;38248;52.722;6.734;2022-09-28T16:47:35;12.30;99.90
52305;DHT22;38248;52.722;6.734;2022-09-28T16:50:02;12.20;99.90
52305;DHT22;38248;52.722;6.734;2022-09-28T16:52:28;12.10;99.90
52305;DHT22;38248;52.722;6.734;2022-09-28T16:55:15;12.10;99.90
52305;DHT22;38248;52.722;6.734;2022-09-28T16:57:43;12.10;99.90
52305;DHT22;38248;52.722;6.734;2022-09-28T17:00:14;12.00;99.90
52305;DHT22;38248;52.722;6.734;2022-09-28T17:02:42;11.90;99.90
52305;DHT22;38248;52.722;6.734;2022-09-28T17:05:08;11.80;99.90
52305;DHT22;38248;52.722;6.734;2022-09-28T17:07:34;11.70;99.90
52305;DHT22;38248;52.722;6.734;2022-09-28T17:10:00;11.60;99.90
52305;DHT22;38248;52.722;6.734;2022-09-28T17:12:25;11.50;99.90
52305;DHT22;38248;52.722;6.734;2022-09-28T17:14:53;11.40;99.90
52305;DHT22;38248;52.722;6.734;2022-09-28T17:17:19;11.40;99.90
52305;DHT22;38248;52.722;6.734;2022-09-28T17:19:45;11.30;99.90
52305;DHT22;38248;52.722;6.734;2022-09-28T17:22:16;11.30;99.90
52305;DHT22;38248;52.722;6.734;2022-09-28T17:24:44;11.20;99.90
52305;DHT22;38248;52.722;6.734;2022-09-28T17:27:15;11.20;99.90
52305;DHT22;38248;52.722;6.734;2022-09-28T17:29:43;11.10;99.90
52305;DHT22;38248;52.722;6.734;2022-09-28T17:32:16;11.00;99.90
52305;DHT22;38248;52.722;6.734;2022-09-28T17:34:42;11.00;99.90
52305;DHT22;38248;52.722;6.734;2022-09-28T17:37:11;10.90;99.90
52305;DHT22;38248;52.722;6.734;2022-09-28T17:39:40;10.90;99.90
52305;DHT22;38248;52.722;6.734;2022-09-28T17:42:06;10.80;99.90
52305;DHT22;38248;52.722;6.734;2022-09-28T17:44:32;10.70;99.90
52305;DHT22;38248;52.722;6.734;2022-09-28T17:46:57;10.80;99.90
52305;DHT22;38248;52.722;6.734;2022-09-28T17:49:25;10.60;99.90
52305;DHT22;38248;52.722;6.734;2022-09-28T17:51:51;10.60;99.90
52305;DHT22;38248;52.722;6.734;2022-09-28T17:54:20;10.50;99.90
52305;DHT22;38248;52.722;6.734;2022-09-28T17:56:50;10.40;99.90
52305;DHT22;38248;52.722;6.734;2022-09-28T17:59:16;10.30;99.90
52305;DHT22;38248;52.722;6.734;2022-09-28T18:01:42;10.20;99.90
52305;DHT22;38248;52.722;6.734;2022-09-28T18:04:10;10.10;99.90
52305;DHT22;38248;52.722;6.734;2022-09-28T18:06:40;10.10;99.90
52305;DHT22;38248;52.722;6.734;2022-09-28T18:09:15;10.00;99.90
52305;DHT22;38248;52.722;6.734;2022-09-28T18:11:43;10.00;99.90
52305;DHT22;38248;52.722;6.734;2022-09-28T18:14:10;9.90;99.90
52305;DHT22;38248;52.722;6.734;2022-09-28T18:16:44;9.90;99.90
52305;DHT22;38248;52.722;6.734;2022-09-28T18:19:12;9.90;99.90
52305;DHT22;38248;52.722;6.734;2022-09-28T18:21:40;9.90;99.90
52305;DHT22;38248;52.722;6.734;2022-09-28T18:24:06;9.90;99.90
52305;DHT22;38248;52.722;6.734;2022-09-28T18:26:32;9.90;99.90
52305;DHT22;38248;52.722;6.734;2022-09-28T18:28:57;9.90;99.90
52305;DHT22;38248;52.722;6.734;2022-09-28T18:31:23;9.90;99.90
52305;DHT22;38248;52.722;6.734;2022-09-28T18:33:49;9.80;99.90